PWSweather.com
Personal Weather Stations
Station Observations
IMAZOWIE6
WarszawaPL

WarszawaPL

Lat: 52.27957, Lon: 21.05489

Elevation: 100

Station Type: WS1080

http://stacjapogody.waw.pl/

High Low Average
Temperature 66.6°F19.2°C 51.1°F10.6°C 56.8°F13.8°C
Dew Point -166.1°F-110.1°C -167.7°F-110.9°C -167.1°F-110.6°C
Winds Calm Calm Calm Calm Calm NCalm N
Wind Gusts 3.4 mph5.5 kmh -- --
Humidity - - -
Pressure 30.69 in1039.3 mb 30.45 in1031.2 mb -
Precipitation 0.00 in0.0 mm - -
Hour Temp Dew Point Humidity Winds Wind Gusts Pressure Precip Precip Rate Daily Precip Total
12:01 AM 51.1°F10.6°C -167.7°F-110.9°C - Calm Calm -- 30.57 in1035.2 mb 0.00 in0.0 mm 0.00 in0.0 mm 0.00 in0.0 mm
12:16 AM 51.1°F10.6°C -167.7°F-110.9°C - Calm Calm -- 30.57 in1035.2 mb 0.00 in0.0 mm 0.00 in0.0 mm 0.00 in0.0 mm
12:31 AM 51.4°F10.8°C -167.7°F-110.9°C - Calm Calm -- 30.57 in1035.2 mb 0.00 in0.0 mm 0.00 in0.0 mm 0.00 in0.0 mm
12:46 AM 51.4°F10.8°C -167.7°F-110.9°C - Calm Calm 3.4 mph5.5 kmh 30.58 in1035.6 mb 0.00 in0.0 mm 0.00 in0.0 mm 0.00 in0.0 mm
01:01 AM 51.1°F10.6°C -167.7°F-110.9°C - Calm Calm 0.6 mph1.0 kmh 30.58 in1035.6 mb 0.00 in0.0 mm 0.00 in0.0 mm 0.00 in0.0 mm
01:16 AM 51.3°F10.7°C -167.7°F-110.9°C - Calm Calm -- 30.58 in1035.6 mb 0.00 in0.0 mm 0.00 in0.0 mm 0.00 in0.0 mm
01:31 AM 51.3°F10.7°C -167.7°F-110.9°C - Calm Calm -- 30.57 in1035.2 mb 0.00 in0.0 mm 0.00 in0.0 mm 0.00 in0.0 mm
01:46 AM 51.6°F10.9°C -167.6°F-110.9°C - Calm Calm -- 30.58 in1035.6 mb 0.00 in0.0 mm 0.00 in0.0 mm 0.00 in0.0 mm
02:01 AM 51.6°F10.9°C -167.6°F-110.9°C - Calm Calm -- 30.58 in1035.6 mb 0.00 in0.0 mm 0.00 in0.0 mm 0.00 in0.0 mm
02:16 AM 51.6°F10.9°C -167.6°F-110.9°C - Calm Calm -- 30.58 in1035.6 mb 0.00 in0.0 mm 0.00 in0.0 mm 0.00 in0.0 mm
02:31 AM 51.4°F10.8°C -167.7°F-110.9°C - Calm Calm -- 30.59 in1035.9 mb 0.01 in0.3 mm 0.05 in1.3 mm 0.01 in0.3 mm
02:46 AM 51.6°F10.9°C -167.6°F-110.9°C - Calm Calm -- 30.59 in1035.9 mb 0.01 in0.3 mm 0.00 in0.0 mm 0.01 in0.3 mm
03:01 AM 51.4°F10.8°C -167.7°F-110.9°C - Calm Calm -- 30.59 in1035.9 mb 0.01 in0.3 mm 0.00 in0.0 mm 0.01 in0.3 mm
03:16 AM 51.6°F10.9°C -167.6°F-110.9°C - Calm Calm -- 30.60 in1036.2 mb 0.00 in0.0 mm 0.00 in0.0 mm 0.01 in0.3 mm
03:31 AM 51.6°F10.9°C -167.6°F-110.9°C - Calm Calm -- 30.60 in1036.2 mb 0.00 in0.0 mm 0.00 in0.0 mm 0.01 in0.3 mm
03:46 AM 51.8°F11.0°C -167.6°F-110.9°C - Calm Calm -- 30.60 in1036.2 mb 0.00 in0.0 mm 0.00 in0.0 mm 0.01 in0.3 mm
04:01 AM 51.8°F11.0°C -167.6°F-110.9°C - Calm Calm -- 30.61 in1036.6 mb 0.00 in0.0 mm 0.00 in0.0 mm 0.01 in0.3 mm
04:16 AM 52.0°F11.1°C -167.6°F-110.9°C - Calm Calm -- 30.60 in1036.2 mb 0.00 in0.0 mm 0.00 in0.0 mm 0.01 in0.3 mm
04:31 AM 52.2°F11.2°C -167.6°F-110.9°C - Calm Calm -- 30.61 in1036.6 mb 0.00 in0.0 mm 0.00 in0.0 mm 0.01 in0.3 mm
04:46 AM 52.2°F11.2°C -167.6°F-110.9°C - Calm Calm -- 30.61 in1036.6 mb 0.00 in0.0 mm 0.00 in0.0 mm 0.01 in0.3 mm
05:01 AM 52.2°F11.2°C -167.6°F-110.9°C - Calm Calm -- 30.61 in1036.6 mb 0.00 in0.0 mm 0.00 in0.0 mm 0.01 in0.3 mm
05:16 AM 52.7°F11.5°C -167.5°F-110.8°C - Calm Calm -- 30.61 in1036.6 mb 0.00 in0.0 mm 0.00 in0.0 mm 0.01 in0.3 mm
05:31 AM 52.5°F11.4°C -167.5°F-110.8°C - Calm Calm 0.6 mph1.0 kmh 30.61 in1036.6 mb 0.00 in0.0 mm 0.00 in0.0 mm 0.01 in0.3 mm
05:46 AM 52.9°F11.6°C -167.5°F-110.8°C - Calm Calm -- 30.61 in1036.6 mb 0.00 in0.0 mm 0.00 in0.0 mm 0.01 in0.3 mm
06:01 AM 52.7°F11.5°C -167.5°F-110.8°C - Calm Calm -- 30.62 in1036.9 mb 0.00 in0.0 mm 0.00 in0.0 mm 0.01 in0.3 mm
06:16 AM 53.1°F11.7°C -167.5°F-110.8°C - Calm Calm -- 30.63 in1037.3 mb 0.00 in0.0 mm 0.00 in0.0 mm 0.01 in0.3 mm
06:31 AM 53.2°F11.8°C -167.5°F-110.8°C - Calm Calm -- 30.63 in1037.3 mb 0.00 in0.0 mm 0.00 in0.0 mm 0.01 in0.3 mm
06:46 AM 53.4°F11.9°C -167.5°F-110.8°C - Calm Calm -- 30.64 in1037.6 mb 0.00 in0.0 mm 0.00 in0.0 mm 0.01 in0.3 mm
07:01 AM 53.6°F12.0°C -167.4°F-110.8°C - Calm Calm -- 30.64 in1037.6 mb 0.00 in0.0 mm 0.00 in0.0 mm 0.01 in0.3 mm
07:16 AM 53.8°F12.1°C -167.4°F-110.8°C - Calm Calm -- 30.64 in1037.6 mb 0.00 in0.0 mm 0.00 in0.0 mm 0.01 in0.3 mm
07:31 AM 54.0°F12.2°C -167.4°F-110.8°C - Calm Calm -- 30.65 in1037.9 mb 0.00 in0.0 mm 0.00 in0.0 mm 0.01 in0.3 mm
07:46 AM 54.3°F12.4°C -167.4°F-110.8°C - Calm Calm -- 30.66 in1038.3 mb 0.00 in0.0 mm 0.00 in0.0 mm 0.01 in0.3 mm
08:01 AM 54.7°F12.6°C -167.3°F-110.7°C - Calm Calm -- 30.66 in1038.3 mb 0.00 in0.0 mm 0.00 in0.0 mm 0.01 in0.3 mm
08:16 AM 54.7°F12.6°C -167.3°F-110.7°C - Calm Calm -- 30.67 in1038.6 mb 0.00 in0.0 mm 0.00 in0.0 mm 0.01 in0.3 mm
08:31 AM 54.7°F12.6°C -167.3°F-110.7°C - Calm Calm 0.6 mph1.0 kmh 30.67 in1038.6 mb 0.00 in0.0 mm 0.00 in0.0 mm 0.01 in0.3 mm
08:46 AM 55.8°F13.2°C -167.2°F-110.7°C - Calm Calm -- 30.68 in1038.9 mb 0.00 in0.0 mm 0.00 in0.0 mm 0.01 in0.3 mm
09:01 AM 58.8°F14.9°C -166.9°F-110.5°C - Calm Calm -- 30.68 in1038.9 mb 0.00 in0.0 mm 0.00 in0.0 mm 0.01 in0.3 mm
09:16 AM 58.5°F14.7°C -167.0°F-110.6°C - Calm Calm -- 30.68 in1038.9 mb 0.00 in0.0 mm 0.00 in0.0 mm 0.01 in0.3 mm
09:31 AM 58.3°F14.6°C -167.0°F-110.6°C - Calm Calm -- 30.69 in1039.3 mb 0.00 in0.0 mm 0.00 in0.0 mm 0.01 in0.3 mm
09:46 AM 59.4°F15.2°C -166.9°F-110.5°C - Calm Calm -- 30.69 in1039.3 mb 0.00 in0.0 mm 0.00 in0.0 mm 0.01 in0.3 mm
10:01 AM 63.1°F17.3°C -166.5°F-110.3°C - Calm Calm -- 30.68 in1038.9 mb 0.00 in0.0 mm 0.00 in0.0 mm 0.01 in0.3 mm
10:16 AM 63.7°F17.6°C -166.4°F-110.2°C - Calm Calm -- 30.66 in1038.3 mb 0.00 in0.0 mm 0.00 in0.0 mm 0.01 in0.3 mm
10:31 AM 62.6°F17.0°C -166.5°F-110.3°C - Calm Calm 0.6 mph1.0 kmh 30.67 in1038.6 mb 0.00 in0.0 mm 0.00 in0.0 mm 0.01 in0.3 mm
10:46 AM 62.1°F16.7°C -166.6°F-110.3°C - Calm Calm -- 30.68 in1038.9 mb 0.00 in0.0 mm 0.00 in0.0 mm 0.01 in0.3 mm
11:01 AM 62.6°F17.0°C -166.5°F-110.3°C - Calm Calm -- 30.68 in1038.9 mb 0.00 in0.0 mm 0.00 in0.0 mm 0.01 in0.3 mm
11:16 AM 63.7°F17.6°C -166.4°F-110.2°C - Calm Calm -- 30.66 in1038.3 mb 0.00 in0.0 mm 0.00 in0.0 mm 0.01 in0.3 mm
11:31 AM 64.2°F17.9°C -166.4°F-110.2°C - Calm Calm -- 30.63 in1037.3 mb 0.00 in0.0 mm 0.00 in0.0 mm 0.01 in0.3 mm
11:46 AM 64.8°F18.2°C -166.3°F-110.2°C - Calm Calm -- 30.61 in1036.6 mb 0.00 in0.0 mm 0.00 in0.0 mm 0.01 in0.3 mm
12:01 PM 64.6°F18.1°C -166.3°F-110.2°C - Calm Calm -- 30.61 in1036.6 mb 0.00 in0.0 mm 0.00 in0.0 mm 0.01 in0.3 mm
12:16 PM 64.6°F18.1°C -166.3°F-110.2°C - Calm Calm -- 30.61 in1036.6 mb 0.00 in0.0 mm 0.00 in0.0 mm 0.01 in0.3 mm
12:31 PM 64.8°F18.2°C -166.3°F-110.2°C - Calm Calm -- 30.61 in1036.6 mb 0.00 in0.0 mm 0.00 in0.0 mm 0.01 in0.3 mm
12:46 PM 65.7°F18.7°C -166.2°F-110.1°C - Calm Calm -- 30.61 in1036.6 mb 0.00 in0.0 mm 0.00 in0.0 mm 0.01 in0.3 mm
01:01 PM 65.5°F18.6°C -166.3°F-110.2°C - Calm Calm -- 30.61 in1036.6 mb 0.00 in0.0 mm 0.00 in0.0 mm 0.01 in0.3 mm
01:16 PM 66.4°F19.1°C -166.2°F-110.1°C - Calm Calm -- 30.60 in1036.2 mb 0.00 in0.0 mm 0.00 in0.0 mm 0.01 in0.3 mm
01:31 PM 66.6°F19.2°C -166.1°F-110.1°C - Calm Calm -- 30.59 in1035.9 mb 0.00 in0.0 mm 0.00 in0.0 mm 0.01 in0.3 mm
01:46 PM 65.7°F18.7°C -166.2°F-110.1°C - Calm Calm -- 30.59 in1035.9 mb 0.01 in0.3 mm 0.05 in1.3 mm 0.02 in0.5 mm
02:01 PM 65.1°F18.4°C -166.3°F-110.2°C - Calm Calm -- 30.60 in1036.2 mb 0.01 in0.3 mm 0.00 in0.0 mm 0.02 in0.5 mm
02:16 PM 64.0°F17.8°C -166.4°F-110.2°C - Calm Calm -- 30.60 in1036.2 mb 0.00 in0.0 mm 0.00 in0.0 mm 0.02 in0.5 mm
02:31 PM 63.0°F17.2°C -166.5°F-110.3°C - Calm Calm -- 30.61 in1036.6 mb 0.00 in0.0 mm 0.00 in0.0 mm 0.02 in0.5 mm
02:46 PM 63.0°F17.2°C -166.5°F-110.3°C - Calm Calm -- 30.61 in1036.6 mb 0.00 in0.0 mm 0.00 in0.0 mm 0.02 in0.5 mm
03:01 PM 62.6°F17.0°C -166.5°F-110.3°C - Calm Calm -- 30.61 in1036.6 mb 0.00 in0.0 mm 0.00 in0.0 mm 0.02 in0.5 mm
03:16 PM 62.2°F16.8°C -166.6°F-110.3°C - Calm Calm -- 30.63 in1037.3 mb 0.00 in0.0 mm 0.00 in0.0 mm 0.02 in0.5 mm
03:31 PM 61.7°F16.5°C -166.6°F-110.3°C - Calm Calm -- 30.64 in1037.6 mb 0.00 in0.0 mm 0.00 in0.0 mm 0.02 in0.5 mm
03:46 PM 61.0°F16.1°C -166.7°F-110.4°C - Calm Calm -- 30.64 in1037.6 mb 0.00 in0.0 mm 0.00 in0.0 mm 0.02 in0.5 mm
04:01 PM 61.0°F16.1°C -166.7°F-110.4°C - Calm Calm -- 30.65 in1037.9 mb 0.00 in0.0 mm 0.00 in0.0 mm 0.02 in0.5 mm
04:16 PM 60.1°F15.6°C -166.8°F-110.4°C - Calm Calm -- 30.65 in1037.9 mb 0.00 in0.0 mm 0.00 in0.0 mm 0.02 in0.5 mm
04:31 PM 59.7°F15.4°C -166.8°F-110.4°C - Calm Calm -- 30.63 in1037.3 mb 0.00 in0.0 mm 0.00 in0.0 mm 0.02 in0.5 mm
04:46 PM 58.8°F14.9°C -166.9°F-110.5°C - Calm Calm -- 30.62 in1036.9 mb 0.00 in0.0 mm 0.00 in0.0 mm 0.02 in0.5 mm
05:01 PM 57.9°F14.4°C -167.0°F-110.6°C - Calm Calm -- 30.61 in1036.6 mb 0.00 in0.0 mm 0.00 in0.0 mm 0.02 in0.5 mm
05:16 PM 57.6°F14.2°C -167.0°F-110.6°C - Calm Calm -- 30.58 in1035.6 mb 0.00 in0.0 mm 0.00 in0.0 mm 0.02 in0.5 mm
05:31 PM 56.7°F13.7°C -167.1°F-110.6°C - Calm Calm -- 30.58 in1035.6 mb 0.00 in0.0 mm 0.00 in0.0 mm 0.02 in0.5 mm
05:46 PM 56.5°F13.6°C -167.2°F-110.7°C - Calm Calm -- 30.57 in1035.2 mb 0.00 in0.0 mm 0.00 in0.0 mm 0.02 in0.5 mm
06:01 PM 56.5°F13.6°C -167.2°F-110.7°C - Calm Calm -- 30.57 in1035.2 mb 0.00 in0.0 mm 0.00 in0.0 mm 0.02 in0.5 mm
06:16 PM 56.3°F13.5°C -167.2°F-110.7°C - Calm Calm -- 30.56 in1034.9 mb 0.00 in0.0 mm 0.00 in0.0 mm 0.02 in0.5 mm
06:31 PM 55.9°F13.3°C -167.2°F-110.7°C - Calm Calm -- 30.54 in1034.2 mb 0.00 in0.0 mm 0.00 in0.0 mm 0.02 in0.5 mm
06:46 PM 56.5°F13.6°C -167.2°F-110.7°C - Calm Calm -- 30.52 in1033.5 mb 0.00 in0.0 mm 0.00 in0.0 mm 0.02 in0.5 mm
07:01 PM 56.1°F13.4°C -167.2°F-110.7°C - Calm Calm -- 30.50 in1032.8 mb 0.00 in0.0 mm 0.00 in0.0 mm 0.02 in0.5 mm
07:16 PM 56.1°F13.4°C -167.2°F-110.7°C - Calm Calm -- 30.49 in1032.5 mb 0.00 in0.0 mm 0.00 in0.0 mm 0.02 in0.5 mm
07:31 PM 55.9°F13.3°C -167.2°F-110.7°C - Calm Calm -- 30.49 in1032.5 mb 0.00 in0.0 mm 0.00 in0.0 mm 0.02 in0.5 mm
07:46 PM 55.9°F13.3°C -167.2°F-110.7°C - Calm Calm -- 30.47 in1031.8 mb 0.00 in0.0 mm 0.00 in0.0 mm 0.02 in0.5 mm
08:01 PM 55.9°F13.3°C -167.2°F-110.7°C - Calm Calm -- 30.46 in1031.5 mb 0.00 in0.0 mm 0.00 in0.0 mm 0.02 in0.5 mm
08:16 PM 55.8°F13.2°C -167.2°F-110.7°C - Calm Calm -- 30.45 in1031.2 mb 0.00 in0.0 mm 0.00 in0.0 mm 0.02 in0.5 mm
08:31 PM 55.8°F13.2°C -167.2°F-110.7°C - Calm Calm -- 30.45 in1031.2 mb 0.00 in0.0 mm 0.00 in0.0 mm 0.02 in0.5 mm
08:46 PM 55.4°F13.0°C -167.3°F-110.7°C - Calm Calm -- 30.46 in1031.5 mb 0.00 in0.0 mm 0.00 in0.0 mm 0.02 in0.5 mm
09:01 PM 55.2°F12.9°C -167.3°F-110.7°C - Calm Calm -- 30.48 in1032.2 mb 0.00 in0.0 mm 0.00 in0.0 mm 0.02 in0.5 mm
09:16 PM 55.2°F12.9°C -167.3°F-110.7°C - Calm Calm -- 30.48 in1032.2 mb 0.00 in0.0 mm 0.00 in0.0 mm 0.02 in0.5 mm
09:31 PM 55.2°F12.9°C -167.3°F-110.7°C - Calm Calm -- 30.47 in1031.8 mb 0.00 in0.0 mm 0.00 in0.0 mm 0.02 in0.5 mm
09:46 PM 54.9°F12.7°C -167.3°F-110.7°C - Calm Calm -- 30.48 in1032.2 mb 0.01 in0.3 mm 0.05 in1.3 mm 0.04 in1.0 mm
10:01 PM 54.9°F12.7°C -167.3°F-110.7°C - Calm Calm -- 30.48 in1032.2 mb 0.01 in0.3 mm 0.00 in0.0 mm 0.04 in1.0 mm
10:16 PM 54.9°F12.7°C -167.3°F-110.7°C - Calm Calm -- 30.51 in1033.2 mb 0.01 in0.3 mm 0.00 in0.0 mm 0.04 in1.0 mm
10:31 PM 55.0°F12.8°C -167.3°F-110.7°C - Calm Calm -- 30.53 in1033.9 mb 0.01 in0.3 mm 0.00 in0.0 mm 0.04 in1.0 mm
10:46 PM 55.0°F12.8°C -167.3°F-110.7°C - Calm Calm -- 30.56 in1034.9 mb 0.01 in0.3 mm 0.00 in0.0 mm 0.04 in1.0 mm
11:01 PM 54.7°F12.6°C -167.3°F-110.7°C - Calm Calm -- 30.57 in1035.2 mb 0.02 in0.5 mm 0.02 in0.5 mm 0.05 in1.3 mm
11:16 PM 54.7°F12.6°C -167.3°F-110.7°C - Calm Calm -- 30.58 in1035.6 mb 0.00 in0.0 mm 0.00 in0.0 mm 0.05 in1.3 mm
11:31 PM 54.1°F12.3°C -167.4°F-110.8°C - Calm Calm -- 30.59 in1035.9 mb 0.00 in0.0 mm 0.00 in0.0 mm 0.05 in1.3 mm
11:46 PM 53.8°F12.1°C -167.4°F-110.8°C - Calm Calm -- 30.61 in1036.6 mb 0.01 in0.3 mm 0.05 in1.3 mm 0.06 in1.5 mm